createdAt,value
2022-10-30T00:04:11.220Z,12.77
2022-10-30T00:08:58.854Z,11.63
2022-10-30T00:13:46.166Z,11.13
2022-10-30T00:18:31.168Z,11.43
2022-10-30T00:23:17.382Z,10.48
2022-10-30T00:28:05.124Z,11.38
2022-10-30T00:32:50.395Z,11.15
2022-10-30T00:37:35.427Z,11.20
2022-10-30T00:42:20.951Z,10.85
2022-10-30T00:47:14.973Z,12.23
2022-10-30T00:52:00.316Z,11.63
2022-10-30T00:56:46.539Z,12.07
2022-10-30T01:01:35.645Z,11.75
2022-10-30T01:06:23.483Z,11.15
2022-10-30T01:11:10.698Z,12.05
2022-10-30T01:16:12.236Z,13.48
2022-10-30T01:21:15.915Z,13.98
2022-10-30T01:26:11.400Z,14.40
2022-10-30T01:31:10.568Z,14.15
2022-10-30T01:36:02.252Z,13.95
2022-10-30T01:40:47.718Z,15.18
2022-10-30T01:45:52.314Z,14.60
2022-10-30T01:50:46.012Z,15.50
2022-10-30T01:55:40.170Z,14.52
2022-10-30T02:00:26.276Z,14.88
2022-10-30T02:05:21.345Z,16.30
2022-10-30T02:10:08.218Z,15.38
2022-10-30T02:14:57.271Z,15.20
2022-10-30T02:19:42.955Z,14.77
2022-10-30T02:24:31.444Z,15.40
2022-10-30T02:29:18.690Z,16.17
2022-10-30T02:34:03.663Z,16.50
2022-10-30T02:38:49.108Z,15.68
2022-10-30T02:43:36.956Z,16.08
2022-10-30T02:48:22.225Z,15.93
2022-10-30T02:53:07.210Z,15.57
2022-10-30T02:57:52.466Z,16.50
2022-10-30T03:02:40.130Z,16.83
2022-10-30T03:07:25.457Z,16.60
2022-10-30T03:12:10.552Z,16.30
2022-10-30T03:16:56.018Z,16.83
2022-10-30T03:21:43.648Z,16.10
2022-10-30T03:26:29.056Z,16.08
2022-10-30T03:31:16.475Z,16.25
2022-10-30T03:36:01.986Z,16.13
2022-10-30T03:40:49.571Z,17.55
2022-10-30T03:45:35.442Z,16.98
2022-10-30T03:50:20.424Z,17.25
2022-10-30T03:55:05.699Z,17.33
2022-10-30T03:59:53.531Z,18.15
2022-10-30T04:04:38.768Z,18.02
2022-10-30T04:09:23.711Z,18.40
2022-10-30T04:14:09.189Z,17.20
2022-10-30T04:18:56.861Z,17.42
2022-10-30T04:23:42.148Z,16.27
2022-10-30T04:28:27.144Z,17.15
2022-10-30T04:33:15.268Z,16.85
2022-10-30T04:38:04.301Z,17.48
2022-10-30T04:42:50.167Z,17.33
2022-10-30T04:47:35.169Z,17.30
2022-10-30T04:52:20.427Z,18.25
2022-10-30T04:57:09.198Z,18.65
2022-10-30T05:01:54.595Z,17.92
2022-10-30T05:06:39.993Z,18.17
2022-10-30T05:11:25.775Z,19.30
2022-10-30T05:16:13.565Z,19.65
2022-10-30T05:20:58.861Z,18.70
2022-10-30T05:25:43.938Z,18.63
2022-10-30T05:30:29.724Z,17.67
2022-10-30T05:35:17.485Z,18.48
2022-10-30T05:40:02.871Z,17.13
2022-10-30T05:45:00.286Z,17.23
2022-10-30T05:49:46.005Z,18.73
2022-10-30T05:54:33.758Z,18.13
2022-10-30T05:59:18.991Z,18.25
2022-10-30T06:04:04.007Z,17.42
2022-10-30T06:08:49.319Z,17.00
2022-10-30T06:13:36.936Z,17.50
2022-10-30T06:18:22.193Z,19.73
2022-10-30T06:23:08.463Z,17.52
2022-10-30T06:27:57.128Z,18.13
2022-10-30T06:32:44.912Z,17.05
2022-10-30T06:37:30.438Z,17.90
2022-10-30T06:42:15.594Z,18.17
2022-10-30T06:47:00.887Z,16.55
2022-10-30T06:51:48.625Z,16.77
2022-10-30T06:56:33.929Z,16.60
2022-10-30T07:01:18.960Z,16.50
2022-10-30T07:06:04.583Z,16.65
2022-10-30T07:10:52.178Z,16.98
2022-10-30T07:15:37.613Z,16.85
2022-10-30T07:20:22.809Z,16.55
2022-10-30T07:25:08.707Z,16.90
2022-10-30T07:29:56.391Z,17.27
2022-10-30T07:34:41.676Z,16.25
2022-10-30T07:39:26.645Z,16.17
2022-10-30T07:44:11.916Z,17.35
2022-10-30T07:49:01.710Z,18.33
2022-10-30T07:53:48.059Z,16.92
2022-10-30T07:58:33.027Z,16.17
2022-10-30T08:03:18.609Z,18.77
2022-10-30T08:08:06.793Z,17.35
2022-10-30T08:12:52.066Z,17.08
2022-10-30T08:17:43.948Z,16.50
2022-10-30T08:22:29.583Z,16.50
2022-10-30T08:27:17.163Z,16.48
2022-10-30T08:32:02.465Z,16.20
2022-10-30T08:36:49.376Z,16.63
2022-10-30T08:41:34.749Z,16.40
2022-10-30T08:46:22.573Z,15.23
2022-10-30T08:51:08.104Z,16.08
2022-10-30T08:55:54.359Z,15.38
2022-10-30T09:00:39.648Z,15.35
2022-10-30T09:05:27.441Z,15.30
2022-10-30T09:10:13.945Z,13.57
2022-10-30T09:14:58.913Z,13.15
2022-10-30T09:19:44.190Z,12.15
2022-10-30T09:24:31.802Z,12.82
2022-10-30T09:29:17.096Z,10.68
2022-10-30T09:34:02.092Z,7.80
2022-10-30T09:38:47.336Z,6.43
2022-10-30T09:43:46.472Z,5.15
2022-10-30T09:48:47.181Z,3.53
2022-10-30T09:53:41.548Z,3.10
2022-10-30T09:58:34.667Z,2.42
2022-10-30T10:03:41.572Z,3.10
2022-10-30T10:08:32.586Z,2.83
2022-10-30T10:13:32.565Z,3.88
2022-10-30T10:18:22.031Z,3.70
2022-10-30T10:23:19.075Z,3.58
2022-10-30T10:28:17.559Z,3.70
2022-10-30T10:33:29.198Z,3.63
2022-10-30T10:38:30.266Z,3.80
2022-10-30T10:43:27.414Z,3.60
2022-10-30T10:48:32.958Z,3.03
2022-10-30T10:53:25.813Z,3.13
2022-10-30T10:58:19.477Z,2.90
2022-10-30T11:03:12.569Z,2.63
2022-10-30T11:08:02.523Z,3.08
2022-10-30T11:12:50.394Z,2.47
2022-10-30T11:17:42.297Z,2.50
2022-10-30T11:22:31.483Z,2.75
2022-10-30T11:27:28.494Z,2.25
2022-10-30T11:32:22.728Z,2.03
2022-10-30T11:37:08.290Z,2.13
2022-10-30T11:42:00.348Z,2.65
2022-10-30T11:46:45.817Z,2.83
2022-10-30T11:51:38.881Z,2.70
2022-10-30T11:56:25.843Z,2.40
2022-10-30T12:01:20.862Z,2.35
2022-10-30T12:06:14.311Z,3.17
2022-10-30T12:11:08.806Z,2.85
2022-10-30T12:16:07.664Z,2.67
2022-10-30T12:20:56.893Z,2.83
2022-10-30T12:25:42.458Z,2.83
2022-10-30T12:30:35.638Z,3.15
2022-10-30T12:35:42.352Z,2.50
2022-10-30T12:40:31.298Z,2.95
2022-10-30T12:45:19.507Z,3.05
2022-10-30T12:50:19.122Z,2.92
2022-10-30T12:55:11.443Z,2.83
2022-10-30T13:00:04.609Z,2.90
2022-10-30T13:04:57.978Z,3.28
2022-10-30T13:09:51.609Z,4.20
2022-10-30T13:14:43.284Z,3.47
2022-10-30T13:19:28.604Z,3.85
2022-10-30T13:24:18.645Z,4.22
2022-10-30T13:29:14.297Z,4.03
2022-10-30T13:34:06.373Z,3.83
2022-10-30T13:43:49.165Z,3.90
2022-10-30T13:53:35.821Z,3.65
2022-10-30T13:58:26.195Z,4.10
2022-10-30T14:03:36.491Z,3.53
2022-10-30T14:08:35.985Z,3.00
2022-10-30T14:13:28.071Z,1.80
2022-10-30T14:23:17.671Z,2.67
2022-10-30T14:28:05.435Z,2.42
2022-10-30T14:32:54.833Z,2.20
2022-10-30T14:37:59.048Z,2.40
2022-10-30T14:42:50.429Z,2.92
2022-10-30T14:47:51.704Z,2.90
2022-10-30T14:52:48.057Z,3.38
2022-10-30T14:57:48.776Z,2.55
2022-10-30T15:02:49.290Z,2.53
2022-10-30T15:07:44.264Z,2.60
2022-10-30T15:13:16.784Z,2.42
2022-10-30T15:18:10.524Z,2.00
2022-10-30T15:23:02.904Z,1.98
2022-10-30T15:27:50.225Z,1.73
2022-10-30T15:32:35.318Z,1.95
2022-10-30T15:37:20.677Z,2.85
2022-10-30T15:42:08.507Z,1.65
2022-10-30T15:46:56.719Z,1.88
2022-10-30T15:51:48.721Z,1.63
2022-10-30T15:56:44.461Z,1.83
2022-10-30T16:01:49.302Z,1.48
2022-10-30T16:06:35.399Z,1.83
2022-10-30T16:11:22.802Z,1.83
2022-10-30T16:16:09.087Z,1.50
2022-10-30T16:20:58.447Z,1.60
2022-10-30T16:25:47.237Z,1.50
2022-10-30T16:30:34.047Z,1.83
2022-10-30T16:35:19.160Z,2.40
2022-10-30T16:40:14.963Z,2.85
2022-10-30T16:45:43.030Z,2.35
2022-10-30T16:50:34.647Z,1.77
2022-10-30T16:55:24.915Z,1.88
2022-10-30T17:00:25.945Z,2.30
2022-10-30T17:05:20.539Z,2.13
2022-10-30T17:10:05.670Z,2.10
2022-10-30T17:14:56.452Z,1.85
2022-10-30T17:19:49.703Z,1.73
2022-10-30T17:24:36.945Z,1.90
2022-10-30T17:29:47.387Z,2.08
2022-10-30T17:34:40.225Z,1.60
2022-10-30T17:39:25.221Z,1.95
2022-10-30T17:44:18.197Z,1.48
2022-10-30T17:49:03.496Z,2.40
2022-10-30T17:53:52.133Z,2.17
2022-10-30T17:58:37.127Z,1.98
2022-10-30T18:03:22.411Z,1.85
2022-10-30T18:08:08.033Z,2.00
2022-10-30T18:13:13.144Z,1.88
2022-10-30T18:17:58.773Z,1.85
2022-10-30T18:22:43.767Z,2.40
2022-10-30T18:27:29.035Z,2.42
2022-10-30T18:32:16.670Z,6.25
2022-10-30T18:37:01.886Z,5.30
2022-10-30T18:41:49.625Z,5.47
2022-10-30T18:46:36.574Z,9.02
2022-10-30T18:51:26.991Z,5.75
2022-10-30T18:56:13.190Z,6.28
2022-10-30T19:01:11.589Z,4.80
2022-10-30T19:05:57.467Z,4.00
2022-10-30T19:10:46.600Z,5.80
2022-10-30T19:15:36.039Z,4.50
2022-10-30T19:20:24.849Z,4.45
2022-10-30T19:25:23.672Z,4.30
2022-10-30T19:30:12.919Z,4.25
2022-10-30T19:34:58.214Z,3.72
2022-10-30T19:39:43.267Z,3.80
2022-10-30T19:44:28.529Z,3.13
2022-10-30T19:49:21.536Z,3.00
2022-10-30T19:54:07.157Z,2.78
2022-10-30T19:58:52.852Z,2.88
2022-10-30T20:03:38.108Z,3.00
2022-10-30T20:08:28.187Z,3.10
2022-10-30T20:13:14.226Z,2.90
2022-10-30T20:18:00.528Z,2.75
2022-10-30T20:22:46.132Z,2.75
2022-10-30T20:27:33.735Z,2.85
2022-10-30T20:32:19.011Z,2.42
2022-10-30T20:37:04.016Z,2.38
2022-10-30T20:41:49.306Z,2.65
2022-10-30T20:46:36.873Z,2.40
2022-10-30T20:51:22.143Z,2.95
2022-10-30T20:56:07.828Z,2.45
2022-10-30T21:00:54.015Z,2.88
2022-10-30T21:05:44.171Z,2.60
2022-10-30T21:10:30.699Z,2.70
2022-10-30T21:15:15.796Z,2.90
2022-10-30T21:20:01.139Z,4.00
2022-10-30T21:24:48.731Z,4.82
2022-10-30T21:29:35.181Z,5.68
2022-10-30T21:34:20.679Z,6.00
2022-10-30T21:39:05.999Z,5.70
2022-10-30T21:43:58.147Z,4.68
2022-10-30T21:48:43.453Z,4.63
2022-10-30T21:53:28.416Z,4.93
2022-10-30T21:58:13.686Z,4.43
2022-10-30T22:03:01.880Z,3.67
2022-10-30T22:07:47.135Z,3.95
2022-10-30T22:12:32.327Z,3.60
2022-10-30T22:17:17.611Z,3.28
2022-10-30T22:22:05.240Z,4.18
2022-10-30T22:26:50.503Z,3.45
2022-10-30T22:31:35.508Z,3.28
2022-10-30T22:36:23.099Z,3.22
2022-10-30T22:41:18.873Z,3.20
2022-10-30T22:46:04.169Z,3.08
2022-10-30T22:50:49.207Z,3.10
2022-10-30T22:55:34.480Z,3.47
2022-10-30T23:00:28.096Z,3.25
2022-10-30T23:05:13.420Z,3.40
2022-10-30T23:09:59.356Z,3.13
2022-10-30T23:14:44.649Z,3.08
2022-10-30T23:19:32.411Z,3.40
2022-10-30T23:24:17.668Z,3.65
2022-10-30T23:29:04.502Z,3.80
2022-10-30T23:33:51.152Z,3.85
2022-10-30T23:38:38.826Z,3.92
2022-10-30T23:43:27.655Z,3.90
2022-10-30T23:48:13.878Z,3.85
2022-10-30T23:52:59.187Z,3.80
2022-10-30T23:57:50.105Z,3.85
